createdAt,value
2018-04-18T00:00:30.313Z,30.00
2018-04-18T00:01:05.869Z,30.00
2018-04-18T00:01:41.260Z,30.00
2018-04-18T00:02:17.698Z,215.84
2018-04-18T00:02:52.698Z,210.00
2018-04-18T00:03:28.006Z,202.63
2018-04-18T00:04:03.592Z,203.28
2018-04-18T00:04:39.663Z,202.72
2018-04-18T00:05:15.723Z,203.38
2018-04-18T00:05:52.220Z,210.00
2018-04-18T00:06:27.296Z,204.87
2018-04-18T00:07:02.613Z,204.03
2018-04-18T00:07:37.889Z,158.08
2018-04-18T00:08:13.203Z,75.00
2018-04-18T00:08:49.115Z,75.00
2018-04-18T00:09:24.724Z,75.00
2018-04-18T00:10:00.224Z,90.58
2018-04-18T00:10:35.861Z,185.20
2018-04-18T00:11:12.613Z,215.93
2018-04-18T00:11:48.352Z,205.40
2018-04-18T00:12:23.930Z,206.35
2018-04-18T00:12:59.564Z,203.38
2018-04-18T00:13:34.648Z,204.22
2018-04-18T00:14:09.559Z,203.57
2018-04-18T00:14:44.746Z,209.28
2018-04-18T00:15:20.387Z,204.42
2018-04-18T00:15:56.566Z,208.55
2018-04-18T00:16:32.083Z,203.66
2018-04-18T00:17:07.883Z,203.57
2018-04-18T00:17:44.191Z,209.28
2018-04-18T00:18:19.786Z,204.12
2018-04-18T00:18:55.440Z,204.32
2018-04-18T00:19:30.825Z,204.22
2018-04-18T00:20:06.036Z,204.12
2018-04-18T00:20:43.559Z,204.77
2018-04-18T00:21:19.184Z,204.97
2018-04-18T00:21:54.934Z,205.51
2018-04-18T00:22:30.458Z,210.00
2018-04-18T00:23:05.959Z,205.81
2018-04-18T00:23:41.692Z,204.97
2018-04-18T00:24:17.164Z,209.88
2018-04-18T00:24:52.570Z,207.08
2018-04-18T00:25:28.200Z,206.87
2018-04-18T00:26:03.539Z,207.19
2018-04-18T00:26:39.516Z,208.94
2018-04-18T00:27:15.018Z,206.35
2018-04-18T00:27:50.394Z,207.08
2018-04-18T00:28:25.599Z,207.93
2018-04-18T00:29:00.782Z,208.33
2018-04-18T00:29:36.104Z,206.98
2018-04-18T00:30:11.714Z,209.05
2018-04-18T00:30:46.929Z,208.55
2018-04-18T00:31:22.280Z,208.44
2018-04-18T00:31:57.501Z,206.45
2018-04-18T00:32:32.720Z,208.66
2018-04-18T00:33:08.154Z,207.71
2018-04-18T00:33:45.388Z,206.98
2018-04-18T00:34:20.727Z,206.98
2018-04-18T00:34:56.260Z,206.45
2018-04-18T00:35:31.381Z,206.56
2018-04-18T00:36:07.088Z,208.33
2018-04-18T00:36:42.437Z,206.35
2018-04-18T00:37:17.974Z,210.00
2018-04-18T00:37:53.211Z,207.08
2018-04-18T00:38:28.314Z,207.08
2018-04-18T00:39:03.852Z,206.98
2018-04-18T00:39:39.536Z,210.00
2018-04-18T00:40:14.671Z,206.35
2018-04-18T00:40:49.757Z,209.16
2018-04-18T00:41:25.409Z,204.32
2018-04-18T00:42:00.881Z,207.93
2018-04-18T00:42:36.921Z,206.35
2018-04-18T00:43:12.029Z,209.16
2018-04-18T00:43:47.475Z,208.22
2018-04-18T00:44:22.961Z,204.12
2018-04-18T00:44:58.193Z,205.07
2018-04-18T00:45:33.590Z,210.00
2018-04-18T00:46:09.093Z,205.07
2018-04-18T00:46:44.340Z,208.04
2018-04-18T00:47:19.575Z,206.35
2018-04-18T00:47:54.969Z,205.27
2018-04-18T00:48:30.199Z,206.98
2018-04-18T00:49:05.409Z,206.45
2018-04-18T00:49:40.766Z,205.61
2018-04-18T00:50:16.035Z,206.24
2018-04-18T00:50:54.153Z,205.93
2018-04-18T00:51:29.248Z,206.35
2018-04-18T00:52:04.738Z,207.19
2018-04-18T00:52:40.341Z,210.00
2018-04-18T00:53:15.790Z,207.71
2018-04-18T00:53:51.090Z,207.60
2018-04-18T00:54:26.314Z,208.55
2018-04-18T00:55:01.707Z,207.93
2018-04-18T00:55:37.534Z,207.82
2018-04-18T00:56:12.819Z,208.04
2018-04-18T00:56:48.284Z,204.97
2018-04-18T00:57:23.824Z,206.98
2018-04-18T00:57:59.245Z,206.04
2018-04-18T00:58:34.836Z,205.71
2018-04-18T00:59:10.191Z,208.55
2018-04-18T00:59:45.794Z,205.07
2018-04-18T01:00:21.227Z,207.71
2018-04-18T01:00:56.635Z,207.08
2018-04-18T01:01:32.307Z,204.03
2018-04-18T01:02:07.915Z,208.04
2018-04-18T01:02:43.162Z,103.40
2018-04-18T01:03:18.377Z,75.00
2018-04-18T01:03:54.025Z,75.00
2018-04-18T01:04:29.007Z,75.00
2018-04-18T01:05:04.419Z,75.00
2018-04-18T01:05:41.016Z,75.00
2018-04-18T01:06:16.342Z,75.00
2018-04-18T01:06:51.760Z,75.00
2018-04-18T01:07:27.187Z,75.00
2018-04-18T01:08:02.496Z,75.00
2018-04-18T01:08:37.915Z,75.00
2018-04-18T01:09:13.245Z,75.00
2018-04-18T01:09:48.585Z,75.00
2018-04-18T01:10:23.792Z,75.00
2018-04-18T01:11:02.401Z,78.86
2018-04-18T01:11:37.909Z,75.00
2018-04-18T01:12:13.134Z,92.55
2018-04-18T01:12:48.425Z,74.31
2018-04-18T01:13:23.881Z,75.00
2018-04-18T01:13:58.983Z,75.00
2018-04-18T01:14:34.619Z,75.00
2018-04-18T01:15:09.927Z,75.00
2018-04-18T01:15:45.468Z,75.00
2018-04-18T01:16:20.759Z,75.00
2018-04-18T01:16:56.200Z,75.00
2018-04-18T01:17:31.301Z,75.00
2018-04-18T01:18:06.447Z,75.00
2018-04-18T01:18:42.168Z,75.00
2018-04-18T01:19:17.880Z,75.00
2018-04-18T01:19:52.974Z,75.00
2018-04-18T01:20:28.416Z,75.00
2018-04-18T01:21:03.913Z,75.00
2018-04-18T01:21:39.747Z,75.00
2018-04-18T01:22:15.237Z,75.00
2018-04-18T01:22:50.591Z,75.00
2018-04-18T01:23:26.266Z,75.00
2018-04-18T01:24:01.843Z,75.00
2018-04-18T01:24:36.954Z,247.27
2018-04-18T01:25:12.472Z,255.00
2018-04-18T01:25:47.904Z,36.32
2018-04-18T01:26:23.252Z,30.00
2018-04-18T01:26:58.254Z,30.00
2018-04-18T01:27:33.485Z,30.00
2018-04-18T01:28:08.995Z,357.35
2018-04-18T01:28:44.843Z,300.00
2018-04-18T01:29:19.983Z,300.00
2018-04-18T01:29:55.618Z,300.00
2018-04-18T01:30:31.119Z,300.00
2018-04-18T01:31:06.666Z,300.00
2018-04-18T01:31:42.364Z,300.00
2018-04-18T01:32:17.691Z,300.00
2018-04-18T01:32:53.118Z,273.41
2018-04-18T01:33:28.428Z,180.64
2018-04-18T01:34:03.815Z,179.14
2018-04-18T01:34:39.566Z,177.65
2018-04-18T01:35:15.181Z,177.64
2018-04-18T01:35:50.314Z,177.65
2018-04-18T01:36:25.822Z,180.64
2018-04-18T01:37:01.284Z,179.14
2018-04-18T01:37:36.793Z,179.14
2018-04-18T01:38:12.114Z,179.14
2018-04-18T01:38:47.422Z,179.14
2018-04-18T01:39:22.856Z,179.14
2018-04-18T01:39:58.067Z,171.85
2018-04-18T01:40:33.627Z,177.63
2018-04-18T01:41:08.929Z,168.99
2018-04-18T01:41:44.463Z,177.65
2018-04-18T01:42:19.778Z,179.14
2018-04-18T01:42:54.995Z,179.14
2018-04-18T01:43:30.400Z,177.65
2018-04-18T01:44:05.702Z,180.64
2018-04-18T01:44:41.429Z,179.14
2018-04-18T01:45:16.801Z,177.64
2018-04-18T01:45:53.010Z,173.26
2018-04-18T01:46:28.133Z,180.64
2018-04-18T01:47:03.728Z,179.14
2018-04-18T01:47:39.039Z,177.65
2018-04-18T01:48:14.321Z,180.64
2018-04-18T01:48:49.563Z,165.00
2018-04-18T01:49:24.680Z,179.14
2018-04-18T01:50:00.283Z,170.42
2018-04-18T01:50:36.537Z,177.64
2018-04-18T01:51:13.201Z,177.65
2018-04-18T01:51:48.488Z,177.63
2018-04-18T01:52:24.096Z,179.14
2018-04-18T01:52:59.393Z,177.64
2018-04-18T01:53:35.122Z,179.14
2018-04-18T01:54:10.605Z,165.00
2018-04-18T01:54:46.048Z,180.64
2018-04-18T01:55:21.257Z,177.64
2018-04-18T01:55:56.715Z,179.14
2018-04-18T01:56:31.811Z,177.65
2018-04-18T01:57:07.022Z,170.45
2018-04-18T01:57:42.721Z,177.63
2018-04-18T01:58:18.263Z,179.14
2018-04-18T01:58:53.561Z,177.65
2018-04-18T01:59:29.286Z,180.64
2018-04-18T02:00:04.587Z,167.66
2018-04-18T02:00:41.423Z,165.00
2018-04-18T02:01:19.148Z,179.14
2018-04-18T02:01:54.686Z,179.89
2018-04-18T02:02:29.769Z,199.99
2018-04-18T02:03:05.012Z,205.22
2018-04-18T02:03:40.511Z,196.95
2018-04-18T02:04:15.948Z,220.34
2018-04-18T02:04:52.241Z,206.24
2018-04-18T02:05:29.808Z,208.44
2018-04-18T02:06:10.469Z,210.00
2018-04-18T02:06:45.776Z,213.70
2018-04-18T02:10:00.222Z,205.67
2018-04-18T02:10:36.028Z,207.08
2018-04-18T02:11:11.437Z,206.45
2018-04-18T02:11:46.815Z,207.08
2018-04-18T02:12:22.088Z,205.51
2018-04-18T02:12:57.701Z,204.97
2018-04-18T02:13:32.965Z,206.45
2018-04-18T02:14:08.357Z,206.98
2018-04-18T02:14:43.561Z,207.71
2018-04-18T02:15:18.640Z,204.77
2018-04-18T02:15:54.029Z,205.40
2018-04-18T02:16:29.631Z,209.88
2018-04-18T02:17:04.830Z,205.61
2018-04-18T02:17:40.667Z,206.35
2018-04-18T02:18:16.078Z,206.87
2018-04-18T02:18:51.880Z,208.94
2018-04-18T02:19:27.147Z,158.90
2018-04-18T02:20:02.645Z,30.00
2018-04-18T02:20:39.842Z,30.00
2018-04-18T02:21:15.741Z,30.00
2018-04-18T02:21:51.186Z,30.00
2018-04-18T02:22:26.691Z,30.00
2018-04-18T02:23:01.907Z,30.00
2018-04-18T02:23:37.290Z,30.00
2018-04-18T02:24:12.771Z,30.00
2018-04-18T02:24:48.270Z,30.00
2018-04-18T02:25:23.345Z,30.00
2018-04-18T02:25:58.656Z,30.00
2018-04-18T02:26:34.180Z,30.00
2018-04-18T02:27:09.420Z,30.00
2018-04-18T02:27:45.021Z,30.00
2018-04-18T02:28:20.691Z,30.00
2018-04-18T02:28:56.397Z,59.36
2018-04-18T02:29:32.022Z,72.98
2018-04-18T02:30:07.362Z,75.00
2018-04-18T02:30:42.751Z,75.00
2018-04-18T02:31:18.162Z,75.00
2018-04-18T02:31:53.515Z,75.00
2018-04-18T02:32:28.812Z,75.00
2018-04-18T02:33:04.109Z,75.00
2018-04-18T02:33:39.602Z,75.00
2018-04-18T02:34:14.796Z,205.24
2018-04-18T02:34:50.107Z,206.35
2018-04-18T02:35:25.681Z,207.82
2018-04-18T02:36:01.199Z,208.04
2018-04-18T02:36:36.785Z,206.98
2018-04-18T02:37:12.075Z,206.98
2018-04-18T02:37:47.523Z,204.87
2018-04-18T02:38:22.808Z,205.61
2018-04-18T02:38:58.696Z,205.61
2018-04-18T02:39:35.495Z,207.71
2018-04-18T02:40:11.131Z,207.19
2018-04-18T02:40:47.049Z,207.49
2018-04-18T02:41:23.440Z,154.40
2018-04-18T02:41:58.841Z,30.00
2018-04-18T02:42:34.111Z,30.00
2018-04-18T02:43:09.535Z,30.00
2018-04-18T02:43:47.325Z,47.94
2018-04-18T02:44:22.735Z,179.14
2018-04-18T02:44:58.128Z,179.14
2018-04-18T02:45:33.505Z,180.64
2018-04-18T02:46:08.909Z,227.58
2018-04-18T02:46:44.331Z,239.69
2018-04-18T02:47:19.600Z,209.29
2018-04-18T02:47:54.987Z,180.66
2018-04-18T02:48:30.409Z,175.93
2018-04-18T02:49:06.013Z,76.75
2018-04-18T02:49:41.092Z,204.12
2018-04-18T02:50:16.699Z,133.18
2018-04-18T02:50:52.114Z,77.66
2018-04-18T02:51:27.597Z,75.00
2018-04-18T02:52:03.115Z,75.00
2018-04-18T02:52:39.102Z,77.01
2018-04-18T02:53:14.300Z,322.85
2018-04-18T02:53:49.537Z,75.00
2018-04-18T02:54:25.002Z,75.00
2018-04-18T02:55:00.510Z,75.00
2018-04-18T02:55:37.014Z,75.00
2018-04-18T02:56:12.337Z,75.00
2018-04-18T02:56:48.755Z,75.00
2018-04-18T02:57:24.025Z,75.00
2018-04-18T02:57:59.153Z,75.00
2018-04-18T02:58:34.852Z,75.00
2018-04-18T02:59:10.408Z,75.00
2018-04-18T02:59:45.824Z,75.00
2018-04-18T03:00:21.418Z,75.00
2018-04-18T03:00:56.731Z,75.00
2018-04-18T03:01:32.103Z,75.00
2018-04-18T03:02:07.546Z,75.00
2018-04-18T03:02:42.815Z,75.00
2018-04-18T03:03:18.730Z,75.00
2018-04-18T03:03:53.752Z,75.00
2018-04-18T03:04:28.982Z,75.00
2018-04-18T03:05:04.303Z,75.00
2018-04-18T03:05:39.589Z,75.00
2018-04-18T03:06:15.099Z,75.00
2018-04-18T03:06:51.914Z,75.00
2018-04-18T03:07:27.137Z,97.73
2018-04-18T03:08:02.550Z,205.61
2018-04-18T03:08:37.750Z,205.71
2018-04-18T03:09:13.156Z,208.22
2018-04-18T03:09:48.609Z,205.61
2018-04-18T03:10:23.924Z,207.82
2018-04-18T03:11:00.668Z,206.98
2018-04-18T03:11:36.152Z,205.81
2018-04-18T03:12:11.756Z,206.35
2018-04-18T03:12:47.033Z,204.97
2018-04-18T03:13:22.347Z,206.45
2018-04-18T03:13:57.719Z,206.87
2018-04-18T03:14:33.330Z,204.77
2018-04-18T03:15:08.685Z,206.35
2018-04-18T03:15:44.573Z,206.45
2018-04-18T03:16:19.865Z,206.24
2018-04-18T03:16:55.845Z,205.61
2018-04-18T03:17:31.134Z,206.04
2018-04-18T03:18:06.296Z,207.30
2018-04-18T03:18:41.576Z,206.04
2018-04-18T03:19:16.976Z,210.00
2018-04-18T03:19:52.278Z,206.24
2018-04-18T03:20:27.518Z,206.24
2018-04-18T03:21:02.595Z,207.71
2018-04-18T03:21:37.997Z,205.27
2018-04-18T03:22:13.419Z,210.00
2018-04-18T03:22:48.710Z,207.71
2018-04-18T03:23:24.113Z,207.93
2018-04-18T03:23:59.603Z,207.60
2018-04-18T03:24:34.614Z,206.45
2018-04-18T03:25:13.355Z,207.71
2018-04-18T03:25:48.764Z,209.28
2018-04-18T03:26:24.165Z,208.11
2018-04-18T03:26:59.466Z,205.51
2018-04-18T03:27:34.684Z,205.81
2018-04-18T03:28:09.790Z,206.98
2018-04-18T03:28:47.081Z,205.61
2018-04-18T03:29:22.283Z,204.42
2018-04-18T03:29:57.669Z,208.33
2018-04-18T03:30:33.087Z,206.45
2018-04-18T03:31:10.035Z,206.24
2018-04-18T03:31:45.416Z,205.61
2018-04-18T03:32:20.727Z,207.08
2018-04-18T03:32:55.913Z,206.67
2018-04-18T03:33:31.223Z,205.71
2018-04-18T03:34:09.040Z,206.24
2018-04-18T03:34:44.135Z,210.00
2018-04-18T03:35:19.461Z,206.04
2018-04-18T03:35:58.005Z,208.66
2018-04-18T03:36:35.503Z,205.51
2018-04-18T03:37:10.708Z,210.00
2018-04-18T03:37:46.167Z,207.49
2018-04-18T03:38:24.001Z,206.35
2018-04-18T03:38:59.264Z,206.45
2018-04-18T03:39:35.289Z,206.02
2018-04-18T03:40:10.725Z,205.81
2018-04-18T03:40:47.044Z,208.55
2018-04-18T03:41:22.234Z,206.04
2018-04-18T03:41:57.460Z,206.45
2018-04-18T03:42:32.984Z,205.07
2018-04-18T03:43:08.400Z,207.49
2018-04-18T03:43:43.810Z,205.07
2018-04-18T03:44:19.099Z,206.04
2018-04-18T03:44:54.368Z,205.92
2018-04-18T03:45:31.677Z,205.81
2018-04-18T03:46:07.174Z,206.87
2018-04-18T03:46:42.877Z,210.00
2018-04-18T03:47:19.000Z,205.51
2018-04-18T03:47:55.973Z,206.98
2018-04-18T03:48:31.386Z,205.61
2018-04-18T03:49:06.788Z,206.87
2018-04-18T03:49:42.168Z,206.02
2018-04-18T03:50:17.674Z,206.24
2018-04-18T03:50:53.148Z,209.28
2018-04-18T03:51:28.761Z,205.71
2018-04-18T03:52:04.573Z,207.82
2018-04-18T03:52:39.975Z,208.33
2018-04-18T03:53:16.866Z,206.87
2018-04-18T03:53:52.188Z,208.11
2018-04-18T03:54:27.404Z,209.77
2018-04-18T03:55:02.806Z,204.42
2018-04-18T03:55:38.016Z,34.83
2018-04-18T03:56:16.534Z,30.00
2018-04-18T03:56:51.725Z,30.00
2018-04-18T03:57:27.070Z,30.00
2018-04-18T03:58:02.553Z,107.07
2018-04-18T03:58:40.868Z,132.29
2018-04-18T03:59:16.355Z,129.18
2018-04-18T03:59:51.851Z,118.35
2018-04-18T04:00:27.199Z,75.00
2018-04-18T04:01:02.366Z,75.00
2018-04-18T04:01:37.489Z,75.00
2018-04-18T04:02:13.900Z,75.00
2018-04-18T04:02:51.695Z,75.00
2018-04-18T04:03:27.549Z,97.02
2018-04-18T04:04:02.735Z,82.18
2018-04-18T04:04:38.741Z,75.00
2018-04-18T04:05:14.141Z,75.00
2018-04-18T04:05:49.546Z,75.00
2018-04-18T04:06:24.856Z,75.00
2018-04-18T04:07:00.032Z,75.00
2018-04-18T04:07:35.736Z,81.67
2018-04-18T04:08:11.124Z,81.14
2018-04-18T04:08:46.354Z,75.72
2018-04-18T04:09:21.623Z,75.00
2018-04-18T04:09:56.926Z,75.00
2018-04-18T04:10:32.360Z,75.00
2018-04-18T04:11:10.026Z,75.00
2018-04-18T04:11:45.243Z,75.00
2018-04-18T04:12:20.922Z,75.00
2018-04-18T04:12:58.326Z,75.00
2018-04-18T04:13:33.751Z,75.00
2018-04-18T04:14:09.069Z,75.00
2018-04-18T04:14:44.275Z,75.00
2018-04-18T04:15:19.669Z,75.00
2018-04-18T04:15:55.159Z,75.00
2018-04-18T04:16:30.525Z,75.00
2018-04-18T04:17:05.484Z,75.00
2018-04-18T04:17:41.308Z,75.00
2018-04-18T04:18:16.692Z,75.00
2018-04-18T04:18:51.893Z,75.00
2018-04-18T04:19:27.342Z,75.00
2018-04-18T04:20:02.619Z,75.00
2018-04-18T04:20:38.839Z,75.00
2018-04-18T04:21:14.117Z,75.00
2018-04-18T04:21:50.007Z,75.00
2018-04-18T04:22:25.428Z,75.00
2018-04-18T04:23:01.007Z,75.00
2018-04-18T04:23:36.348Z,75.00
2018-04-18T04:24:11.616Z,75.00
2018-04-18T04:24:47.000Z,75.00
2018-04-18T04:25:22.383Z,75.00
2018-04-18T04:25:57.678Z,75.00
2018-04-18T04:26:33.005Z,75.00
2018-04-18T04:27:08.395Z,75.00
2018-04-18T04:27:44.403Z,75.00
2018-04-18T04:28:19.869Z,75.00
2018-04-18T04:28:55.353Z,75.00
2018-04-18T04:29:30.756Z,75.00
2018-04-18T04:30:06.198Z,75.00
2018-04-18T04:30:42.305Z,75.00
2018-04-18T04:31:17.704Z,75.00
2018-04-18T04:31:52.804Z,75.00
2018-04-18T04:32:28.296Z,75.00
2018-04-18T04:33:04.877Z,75.00
2018-04-18T04:33:40.095Z,75.00
2018-04-18T04:34:15.680Z,75.00
2018-04-18T04:34:50.677Z,75.00
2018-04-18T04:35:26.111Z,75.00
2018-04-18T04:36:01.491Z,75.00
2018-04-18T04:36:36.799Z,75.00
2018-04-18T04:37:12.193Z,75.00
2018-04-18T04:37:47.619Z,75.00
2018-04-18T04:38:23.015Z,75.00
2018-04-18T04:38:58.616Z,75.00
2018-04-18T04:39:33.861Z,75.00
2018-04-18T04:40:08.930Z,75.00
2018-04-18T04:40:44.363Z,75.00
2018-04-18T04:41:21.743Z,94.51
2018-04-18T04:41:57.256Z,206.35
2018-04-18T04:42:32.686Z,207.60
2018-04-18T04:43:08.058Z,206.35
2018-04-18T04:43:43.473Z,205.81
2018-04-18T04:44:18.875Z,89.41
2018-04-18T04:44:54.217Z,75.00
2018-04-18T04:45:29.370Z,207.71
2018-04-18T04:46:04.771Z,207.30
2018-04-18T04:46:40.173Z,210.00
2018-04-18T04:47:15.454Z,207.49
2018-04-18T04:47:50.557Z,207.19
2018-04-18T04:48:25.948Z,205.81
2018-04-18T04:49:01.230Z,204.22
2018-04-18T04:49:37.540Z,208.33
2018-04-18T04:50:12.729Z,206.24
2018-04-18T04:50:48.133Z,205.07
2018-04-18T04:51:23.667Z,206.87
2018-04-18T04:51:59.094Z,207.82
2018-04-18T04:52:34.806Z,207.93
2018-04-18T04:53:10.086Z,203.57
2018-04-18T04:53:46.833Z,209.88
2018-04-18T04:54:22.224Z,207.82
2018-04-18T04:54:57.716Z,208.44
2018-04-18T04:55:33.022Z,208.51
2018-04-18T04:56:08.406Z,207.93
2018-04-18T04:56:43.638Z,206.35
2018-04-18T04:57:19.044Z,206.35
2018-04-18T04:57:54.332Z,204.12
2018-04-18T04:58:29.823Z,206.56
2018-04-18T04:59:05.029Z,215.82
2018-04-18T04:59:40.235Z,26.18
2018-04-18T05:00:15.533Z,283.11
2018-04-18T05:00:51.159Z,300.00
2018-04-18T05:01:26.830Z,300.00
2018-04-18T05:02:02.381Z,300.00
2018-04-18T05:02:37.527Z,300.00
2018-04-18T05:03:12.986Z,300.00
2018-04-18T05:03:48.193Z,300.00
2018-04-18T05:04:23.373Z,300.00
2018-04-18T05:04:58.590Z,300.00
2018-04-18T05:05:33.797Z,300.00
2018-04-18T05:06:09.209Z,300.00
2018-04-18T05:06:45.642Z,209.29
2018-04-18T05:07:21.089Z,216.47
2018-04-18T05:07:56.690Z,255.00
2018-04-18T05:08:32.389Z,145.26
2018-04-18T05:09:07.820Z,243.83
2018-04-18T05:09:43.184Z,200.59
2018-04-18T05:10:18.547Z,106.35
2018-04-18T05:10:56.327Z,190.84
2018-04-18T05:11:31.645Z,243.67
2018-04-18T05:12:06.965Z,142.04
2018-04-18T05:12:42.600Z,219.60
2018-04-18T05:13:18.084Z,161.82
2018-04-18T05:13:53.507Z,177.22
2018-04-18T05:14:28.599Z,209.34
2018-04-18T05:15:04.447Z,209.21
2018-04-18T05:15:39.761Z,250.60
2018-04-18T05:16:15.052Z,252.36
2018-04-18T05:16:50.365Z,238.80
2018-04-18T05:17:25.560Z,183.95
2018-04-18T05:18:01.105Z,179.05
2018-04-18T05:18:36.891Z,250.14
2018-04-18T05:19:12.261Z,120.47
2018-04-18T05:19:47.680Z,333.34
2018-04-18T05:20:23.068Z,56.88
2018-04-18T05:21:00.682Z,204.42
2018-04-18T05:21:36.200Z,202.85
2018-04-18T05:22:11.384Z,241.86
2018-04-18T05:22:46.724Z,84.36
2018-04-18T05:23:21.739Z,255.19
2018-04-18T05:23:57.938Z,178.34
2018-04-18T05:24:33.024Z,187.85
2018-04-18T05:25:10.129Z,190.67
2018-04-18T05:25:45.640Z,45.91
2018-04-18T05:26:22.838Z,144.81
2018-04-18T05:26:58.173Z,215.35
2018-04-18T05:27:33.803Z,138.37
2018-04-18T05:28:09.159Z,250.28
2018-04-18T05:28:44.623Z,255.00
2018-04-18T05:29:19.900Z,150.68
2018-04-18T05:29:55.712Z,10.44
2018-04-18T05:30:31.009Z,39.05
2018-04-18T05:31:06.329Z,63.08
2018-04-18T05:31:41.771Z,61.05
2018-04-18T05:32:20.371Z,266.30
2018-04-18T05:32:56.293Z,255.00
2018-04-18T05:33:32.103Z,224.69
2018-04-18T05:34:07.346Z,212.59
2018-04-18T05:34:43.169Z,209.00
2018-04-18T05:35:18.543Z,206.35
2018-04-18T05:35:55.311Z,205.71
2018-04-18T05:36:30.731Z,207.71
2018-04-18T05:37:06.160Z,211.20
2018-04-18T05:37:41.586Z,197.87
2018-04-18T05:38:17.384Z,167.66
2018-04-18T05:38:52.811Z,211.08
2018-04-18T05:39:28.747Z,203.53
2018-04-18T05:40:04.361Z,187.42
2018-04-18T05:40:41.166Z,220.67
2018-04-18T05:41:18.041Z,220.01
2018-04-18T05:41:53.360Z,10.38
2018-04-18T05:42:31.626Z,152.88
2018-04-18T05:43:06.846Z,349.99
2018-04-18T05:43:43.017Z,218.37
2018-04-18T05:44:18.234Z,205.73
2018-04-18T05:44:53.774Z,226.31
2018-04-18T05:45:30.452Z,214.55
2018-04-18T05:46:07.360Z,212.68
2018-04-18T05:46:44.166Z,213.57
2018-04-18T05:47:19.597Z,226.76
2018-04-18T05:47:54.831Z,209.53
2018-04-18T05:48:30.031Z,219.92
2018-04-18T05:49:05.856Z,201.84
2018-04-18T05:49:41.051Z,222.92
2018-04-18T05:50:16.884Z,127.06
2018-04-18T05:50:52.275Z,84.30
2018-04-18T05:51:27.882Z,204.78
2018-04-18T05:52:03.414Z,261.82
2018-04-18T05:52:38.600Z,284.13
2018-04-18T05:53:13.816Z,223.01
2018-04-18T05:53:49.147Z,83.17
2018-04-18T05:54:24.237Z,240.05
2018-04-18T05:54:59.851Z,228.43
2018-04-18T05:55:34.960Z,304.68
2018-04-18T05:56:10.194Z,218.60
2018-04-18T05:56:45.729Z,226.96
2018-04-18T05:57:21.013Z,228.84
2018-04-18T05:57:56.426Z,211.17
2018-04-18T05:58:31.830Z,196.07
2018-04-18T05:59:07.357Z,19.37
2018-04-18T05:59:43.569Z,258.21
2018-04-18T06:00:19.075Z,302.22
2018-04-18T06:00:55.115Z,227.98
2018-04-18T06:01:30.302Z,219.40
2018-04-18T06:02:05.703Z,226.73
2018-04-18T06:02:41.320Z,266.68
2018-04-18T06:03:17.029Z,217.26
2018-04-18T06:03:52.538Z,209.09
2018-04-18T06:04:27.964Z,222.31
2018-04-18T06:05:06.363Z,226.36
2018-04-18T06:05:41.555Z,210.59
2018-04-18T06:06:18.466Z,209.02
2018-04-18T06:06:53.751Z,221.21
2018-04-18T06:07:29.251Z,219.40
2018-04-18T06:08:07.590Z,224.61
2018-04-18T06:08:42.590Z,239.75
2018-04-18T06:09:19.498Z,243.89
2018-04-18T06:09:54.895Z,305.82
2018-04-18T06:10:32.482Z,218.94
2018-04-18T06:11:07.825Z,38.27
2018-04-18T06:11:44.057Z,292.34
2018-04-18T06:12:19.370Z,199.49
2018-04-18T06:13:00.279Z,264.47
2018-04-18T06:13:37.363Z,36.27
2018-04-18T06:14:16.076Z,19.84
2018-04-18T06:14:54.131Z,227.29
2018-04-18T06:15:32.718Z,96.78
2018-04-18T06:16:07.931Z,214.31
2018-04-18T06:16:43.047Z,325.11
2018-04-18T06:17:22.067Z,226.01
2018-04-18T06:17:57.386Z,222.61
2018-04-18T06:18:36.377Z,219.91
2018-04-18T06:19:11.620Z,227.86
2018-04-18T06:19:46.928Z,207.64
2018-04-18T06:20:22.335Z,175.27
2018-04-18T06:20:59.775Z,187.04
2018-04-18T06:21:35.242Z,187.05
2018-04-18T06:22:12.246Z,236.68
2018-04-18T06:22:47.798Z,260.73
2018-04-18T06:23:22.988Z,302.91
2018-04-18T06:23:58.444Z,262.65
2018-04-18T06:24:33.778Z,256.32
2018-04-18T06:25:09.093Z,358.51
2018-04-18T06:25:47.620Z,89.89
2018-04-18T06:26:25.697Z,310.40
2018-04-18T06:27:04.751Z,228.30
2018-04-18T06:27:42.247Z,185.68
2018-04-18T06:28:17.612Z,252.34
2018-04-18T06:28:52.938Z,211.83
2018-04-18T06:29:28.444Z,252.12
2018-04-18T06:30:03.858Z,188.55
2018-04-18T06:30:42.260Z,214.65
2018-04-18T06:31:20.061Z,226.04
2018-04-18T06:31:55.775Z,255.00
2018-04-18T06:32:32.962Z,241.65
2018-04-18T06:33:08.173Z,239.51
2018-04-18T06:33:45.993Z,255.00
2018-04-18T06:34:21.327Z,246.66
2018-04-18T06:34:56.848Z,177.64
2018-04-18T06:35:32.370Z,138.23
2018-04-18T06:36:11.299Z,76.86
2018-04-18T06:36:46.471Z,214.64
2018-04-18T06:37:21.893Z,214.41
2018-04-18T06:37:57.396Z,210.00
2018-04-18T06:38:32.843Z,211.82
2018-04-18T06:39:08.208Z,207.30
2018-04-18T06:39:46.542Z,207.41
2018-04-18T06:40:22.598Z,255.98
2018-04-18T06:40:58.091Z,215.40
2018-04-18T06:41:35.191Z,202.66
2018-04-18T06:42:10.907Z,244.79
2018-04-18T06:42:46.505Z,237.03
2018-04-18T06:43:22.127Z,212.43
2018-04-18T06:43:57.222Z,262.50
2018-04-18T06:44:32.873Z,18.73
2018-04-18T06:45:08.329Z,242.17
2018-04-18T06:45:44.049Z,217.43
2018-04-18T06:46:20.900Z,188.10
2018-04-18T06:46:56.212Z,294.61
2018-04-18T06:47:31.492Z,137.89
2018-04-18T06:48:06.915Z,114.52
2018-04-18T06:48:42.313Z,67.44
2018-04-18T06:49:17.617Z,56.32
2018-04-18T06:49:53.435Z,129.94
2018-04-18T06:50:28.754Z,76.45
2018-04-18T06:51:07.271Z,75.00
2018-04-18T06:51:42.477Z,70.97
2018-04-18T06:52:17.796Z,90.55
2018-04-18T06:52:53.700Z,208.91
2018-04-18T06:53:28.836Z,228.95
2018-04-18T06:54:04.276Z,214.48
2018-04-18T06:54:39.568Z,121.71
2018-04-18T06:55:15.003Z,59.90
2018-04-18T06:55:50.207Z,222.71
2018-04-18T06:56:28.514Z,70.62
2018-04-18T06:57:04.755Z,272.86
2018-04-18T06:57:39.893Z,202.58
2018-04-18T06:58:15.222Z,213.24
2018-04-18T06:58:50.823Z,90.60
2018-04-18T06:59:26.328Z,98.39
2018-04-18T07:00:01.823Z,72.34
2018-04-18T07:02:38.302Z,234.46
2018-04-18T07:03:13.869Z,252.15
2018-04-18T07:03:51.988Z,73.68
2018-04-18T07:04:27.085Z,274.66
2018-04-18T07:05:05.504Z,232.69
2018-04-18T07:05:41.633Z,231.25
2018-04-18T07:06:17.317Z,219.22
2018-04-18T07:06:52.621Z,247.80
2018-04-18T07:07:27.964Z,245.88
2018-04-18T07:08:03.735Z,215.95
2018-04-18T07:08:40.549Z,229.69
2018-04-18T07:09:15.967Z,252.34
2018-04-18T07:09:51.193Z,247.25
2018-04-18T07:10:26.609Z,237.22
2018-04-18T07:11:05.095Z,243.83
2018-04-18T07:11:40.572Z,255.00
2018-04-18T07:12:18.091Z,255.00
2018-04-18T07:12:53.453Z,255.00
2018-04-18T07:13:30.285Z,211.22
2018-04-18T07:14:05.779Z,210.23
2018-04-18T07:14:40.882Z,255.00
2018-04-18T07:15:16.190Z,255.00
2018-04-18T07:15:53.977Z,208.55
2018-04-18T07:16:30.402Z,207.31
2018-04-18T07:17:05.723Z,359.02
2018-04-18T07:17:42.020Z,213.55
2018-04-18T07:18:17.543Z,312.96
2018-04-18T07:18:53.053Z,52.61
2018-04-18T07:19:28.467Z,205.68
2018-04-18T07:20:03.897Z,229.41
2018-04-18T07:20:41.488Z,255.00
2018-04-18T07:21:17.094Z,10.15
2018-04-18T07:21:52.306Z,75.27
2018-04-18T07:22:27.843Z,308.27
2018-04-18T07:23:04.225Z,239.92
2018-04-18T07:23:42.224Z,247.95
2018-04-18T07:24:17.678Z,260.42
2018-04-18T07:24:52.867Z,250.51
2018-04-18T07:25:31.375Z,243.28
2018-04-18T07:26:06.659Z,210.89
2018-04-18T07:26:42.204Z,306.30
2018-04-18T07:27:17.344Z,196.47
2018-04-18T07:27:52.449Z,237.33
2018-04-18T07:28:27.678Z,245.30
2018-04-18T07:29:03.179Z,242.51
2018-04-18T07:29:39.107Z,252.19
2018-04-18T07:30:14.315Z,240.63
2018-04-18T07:30:49.889Z,288.87
2018-04-18T07:31:25.417Z,222.92
2018-04-18T07:32:01.008Z,13.11
2018-04-18T07:32:36.263Z,241.31
2018-04-18T07:33:11.756Z,242.33
2018-04-18T07:33:47.201Z,203.37
2018-04-18T07:34:22.445Z,264.49